sensor_id;sensor_type;location;lat;lon;timestamp;P1;durP1;ratioP1;P2;durP2;ratioP2
8791;SDS011;4432;50.890;4.744;2022-12-07T00:01:37;8.53;;;5.70;;
8791;SDS011;4432;50.890;4.744;2022-12-07T00:04:05;13.07;;;5.93;;
8791;SDS011;4432;50.890;4.744;2022-12-07T00:06:33;9.07;;;5.57;;
8791;SDS011;4432;50.890;4.744;2022-12-07T00:09:04;8.37;;;5.67;;
8791;SDS011;4432;50.890;4.744;2022-12-07T00:11:31;5.27;;;4.63;;
8791;SDS011;4432;50.890;4.744;2022-12-07T00:13:58;10.33;;;5.50;;
8791;SDS011;4432;50.890;4.744;2022-12-07T00:16:27;10.97;;;6.73;;
8791;SDS011;4432;50.890;4.744;2022-12-07T00:18:55;8.60;;;5.17;;
8791;SDS011;4432;50.890;4.744;2022-12-07T00:21:22;8.23;;;6.30;;
8791;SDS011;4432;50.890;4.744;2022-12-07T00:23:50;7.63;;;5.63;;
8791;SDS011;4432;50.890;4.744;2022-12-07T00:26:22;10.70;;;5.93;;
8791;SDS011;4432;50.890;4.744;2022-12-07T00:28:53;10.83;;;5.40;;
8791;SDS011;4432;50.890;4.744;2022-12-07T00:31:21;9.67;;;5.63;;
8791;SDS011;4432;50.890;4.744;2022-12-07T00:33:49;11.17;;;5.63;;
8791;SDS011;4432;50.890;4.744;2022-12-07T00:36:16;13.00;;;6.67;;
8791;SDS011;4432;50.890;4.744;2022-12-07T00:38:43;8.23;;;5.70;;
8791;SDS011;4432;50.890;4.744;2022-12-07T00:41:14;8.70;;;5.90;;
8791;SDS011;4432;50.890;4.744;2022-12-07T00:43:41;8.63;;;5.70;;
8791;SDS011;4432;50.890;4.744;2022-12-07T00:46:08;11.30;;;6.10;;
8791;SDS011;4432;50.890;4.744;2022-12-07T00:48:35;6.77;;;4.97;;
8791;SDS011;4432;50.890;4.744;2022-12-07T00:51:01;9.07;;;6.00;;
8791;SDS011;4432;50.890;4.744;2022-12-07T00:53:27;11.57;;;6.23;;
8791;SDS011;4432;50.890;4.744;2022-12-07T00:55:53;8.93;;;5.83;;
8791;SDS011;4432;50.890;4.744;2022-12-07T00:58:21;10.13;;;5.83;;
8791;SDS011;4432;50.890;4.744;2022-12-07T01:00:48;6.67;;;5.13;;
8791;SDS011;4432;50.890;4.744;2022-12-07T01:03:14;7.87;;;5.77;;
8791;SDS011;4432;50.890;4.744;2022-12-07T01:05:48;10.33;;;5.90;;
8791;SDS011;4432;50.890;4.744;2022-12-07T01:08:18;12.77;;;5.33;;
8791;SDS011;4432;50.890;4.744;2022-12-07T01:10:44;7.33;;;5.67;;
8791;SDS011;4432;50.890;4.744;2022-12-07T01:13:10;7.90;;;5.43;;
8791;SDS011;4432;50.890;4.744;2022-12-07T01:15:45;11.60;;;6.57;;
8791;SDS011;4432;50.890;4.744;2022-12-07T01:18:11;9.67;;;5.67;;
8791;SDS011;4432;50.890;4.744;2022-12-07T01:20:36;12.53;;;6.37;;
8791;SDS011;4432;50.890;4.744;2022-12-07T01:23:05;10.10;;;5.40;;
8791;SDS011;4432;50.890;4.744;2022-12-07T01:25:31;10.97;;;6.67;;
8791;SDS011;4432;50.890;4.744;2022-12-07T01:27:57;9.37;;;5.57;;
8791;SDS011;4432;50.890;4.744;2022-12-07T01:30:23;12.33;;;6.37;;
8791;SDS011;4432;50.890;4.744;2022-12-07T01:32:49;10.47;;;6.13;;
8791;SDS011;4432;50.890;4.744;2022-12-07T01:35:15;11.90;;;6.67;;
8791;SDS011;4432;50.890;4.744;2022-12-07T01:37:40;8.17;;;5.77;;
8791;SDS011;4432;50.890;4.744;2022-12-07T01:40:06;8.33;;;5.87;;
8791;SDS011;4432;50.890;4.744;2022-12-07T01:42:33;7.40;;;6.13;;
8791;SDS011;4432;50.890;4.744;2022-12-07T01:48:01;8.17;;;5.83;;
8791;SDS011;4432;50.890;4.744;2022-12-07T01:50:29;14.20;;;6.47;;
8791;SDS011;4432;50.890;4.744;2022-12-07T01:52:57;10.60;;;6.60;;
8791;SDS011;4432;50.890;4.744;2022-12-07T01:55:25;11.03;;;6.80;;
8791;SDS011;4432;50.890;4.744;2022-12-07T01:57:52;9.70;;;6.50;;
8791;SDS011;4432;50.890;4.744;2022-12-07T02:00:19;8.73;;;6.50;;
8791;SDS011;4432;50.890;4.744;2022-12-07T02:02:47;9.97;;;6.40;;
8791;SDS011;4432;50.890;4.744;2022-12-07T02:05:17;10.83;;;6.73;;
8791;SDS011;4432;50.890;4.744;2022-12-07T02:07:44;11.00;;;7.10;;
8791;SDS011;4432;50.890;4.744;2022-12-07T02:10:17;10.07;;;6.80;;
8791;SDS011;4432;50.890;4.744;2022-12-07T02:13:10;13.40;;;6.60;;
8791;SDS011;4432;50.890;4.744;2022-12-07T02:18:25;9.80;;;6.93;;
8791;SDS011;4432;50.890;4.744;2022-12-07T02:21:12;10.90;;;6.70;;
8791;SDS011;4432;50.890;4.744;2022-12-07T02:24:09;13.90;;;7.77;;
8791;SDS011;4432;50.890;4.744;2022-12-07T02:32:44;12.70;;;7.90;;
8791;SDS011;4432;50.890;4.744;2022-12-07T02:40:57;10.97;;;6.43;;
8791;SDS011;4432;50.890;4.744;2022-12-07T02:46:21;14.43;;;6.07;;
8791;SDS011;4432;50.890;4.744;2022-12-07T02:48:54;14.57;;;7.57;;
8791;SDS011;4432;50.890;4.744;2022-12-07T02:51:21;11.10;;;6.73;;
8791;SDS011;4432;50.890;4.744;2022-12-07T02:53:48;14.00;;;7.33;;
8791;SDS011;4432;50.890;4.744;2022-12-07T03:07:15;13.93;;;8.03;;
8791;SDS011;4432;50.890;4.744;2022-12-07T03:10:05;13.43;;;8.47;;
8791;SDS011;4432;50.890;4.744;2022-12-07T03:15:38;10.23;;;6.97;;
8791;SDS011;4432;50.890;4.744;2022-12-07T03:18:05;15.10;;;7.30;;
8791;SDS011;4432;50.890;4.744;2022-12-07T03:20:32;15.00;;;7.87;;
8791;SDS011;4432;50.890;4.744;2022-12-07T03:23:03;17.97;;;8.90;;
8791;SDS011;4432;50.890;4.744;2022-12-07T03:25:31;13.90;;;8.40;;
8791;SDS011;4432;50.890;4.744;2022-12-07T03:28:01;12.23;;;8.57;;
8791;SDS011;4432;50.890;4.744;2022-12-07T03:30:37;12.10;;;8.03;;
8791;SDS011;4432;50.890;4.744;2022-12-07T03:33:36;13.60;;;8.57;;
8791;SDS011;4432;50.890;4.744;2022-12-07T03:36:06;24.33;;;8.87;;
8791;SDS011;4432;50.890;4.744;2022-12-07T03:41:17;12.63;;;7.63;;
8791;SDS011;4432;50.890;4.744;2022-12-07T03:43:50;14.97;;;7.53;;
8791;SDS011;4432;50.890;4.744;2022-12-07T03:51:40;11.93;;;7.30;;
8791;SDS011;4432;50.890;4.744;2022-12-07T03:54:30;13.63;;;8.87;;
8791;SDS011;4432;50.890;4.744;2022-12-07T03:57:01;15.87;;;9.63;;
8791;SDS011;4432;50.890;4.744;2022-12-07T03:59:27;12.27;;;7.83;;
8791;SDS011;4432;50.890;4.744;2022-12-07T04:01:56;9.63;;;7.37;;
8791;SDS011;4432;50.890;4.744;2022-12-07T04:04:26;12.33;;;7.80;;
8791;SDS011;4432;50.890;4.744;2022-12-07T04:06:53;11.50;;;7.67;;
8791;SDS011;4432;50.890;4.744;2022-12-07T04:09:19;13.57;;;9.07;;
8791;SDS011;4432;50.890;4.744;2022-12-07T04:11:46;15.00;;;9.10;;
8791;SDS011;4432;50.890;4.744;2022-12-07T04:14:11;12.37;;;7.43;;
8791;SDS011;4432;50.890;4.744;2022-12-07T04:16:44;13.30;;;8.47;;
8791;SDS011;4432;50.890;4.744;2022-12-07T04:19:14;12.30;;;7.87;;
8791;SDS011;4432;50.890;4.744;2022-12-07T04:21:41;13.17;;;7.77;;
8791;SDS011;4432;50.890;4.744;2022-12-07T04:24:06;11.30;;;7.20;;
8791;SDS011;4432;50.890;4.744;2022-12-07T04:26:33;14.90;;;7.13;;
8791;SDS011;4432;50.890;4.744;2022-12-07T04:28:58;10.50;;;6.83;;
8791;SDS011;4432;50.890;4.744;2022-12-07T04:31:24;14.67;;;7.87;;
8791;SDS011;4432;50.890;4.744;2022-12-07T04:33:50;10.80;;;6.67;;
8791;SDS011;4432;50.890;4.744;2022-12-07T04:36:16;14.27;;;7.47;;
8791;SDS011;4432;50.890;4.744;2022-12-07T04:38:42;9.37;;;6.27;;
8791;SDS011;4432;50.890;4.744;2022-12-07T04:41:08;14.13;;;7.90;;
8791;SDS011;4432;50.890;4.744;2022-12-07T04:43:35;11.17;;;6.47;;
8791;SDS011;4432;50.890;4.744;2022-12-07T04:46:01;9.27;;;6.40;;
8791;SDS011;4432;50.890;4.744;2022-12-07T04:48:28;11.97;;;6.87;;
8791;SDS011;4432;50.890;4.744;2022-12-07T04:50:54;13.03;;;6.63;;
8791;SDS011;4432;50.890;4.744;2022-12-07T04:53:20;10.37;;;7.17;;
8791;SDS011;4432;50.890;4.744;2022-12-07T04:55:46;10.63;;;6.60;;
8791;SDS011;4432;50.890;4.744;2022-12-07T04:58:12;11.73;;;7.63;;
8791;SDS011;4432;50.890;4.744;2022-12-07T05:00:38;8.87;;;5.73;;
8791;SDS011;4432;50.890;4.744;2022-12-07T05:03:04;12.10;;;7.53;;
8791;SDS011;4432;50.890;4.744;2022-12-07T05:05:30;13.03;;;7.00;;
8791;SDS011;4432;50.890;4.744;2022-12-07T05:07:57;11.53;;;7.53;;
8791;SDS011;4432;50.890;4.744;2022-12-07T05:10:22;15.20;;;8.83;;
8791;SDS011;4432;50.890;4.744;2022-12-07T05:12:48;9.73;;;6.73;;
8791;SDS011;4432;50.890;4.744;2022-12-07T05:15:14;10.77;;;6.57;;
8791;SDS011;4432;50.890;4.744;2022-12-07T05:17:41;9.87;;;7.30;;
8791;SDS011;4432;50.890;4.744;2022-12-07T05:20:07;12.10;;;7.53;;
8791;SDS011;4432;50.890;4.744;2022-12-07T05:22:34;10.30;;;6.80;;
8791;SDS011;4432;50.890;4.744;2022-12-07T05:25:00;13.63;;;7.03;;
8791;SDS011;4432;50.890;4.744;2022-12-07T05:27:25;15.77;;;8.00;;
8791;SDS011;4432;50.890;4.744;2022-12-07T05:29:52;9.97;;;6.80;;
8791;SDS011;4432;50.890;4.744;2022-12-07T05:32:18;11.27;;;7.93;;
8791;SDS011;4432;50.890;4.744;2022-12-07T05:34:44;12.73;;;6.57;;
8791;SDS011;4432;50.890;4.744;2022-12-07T05:37:10;14.43;;;6.90;;
8791;SDS011;4432;50.890;4.744;2022-12-07T05:39:35;12.20;;;6.60;;
8791;SDS011;4432;50.890;4.744;2022-12-07T05:42:03;10.83;;;8.03;;
8791;SDS011;4432;50.890;4.744;2022-12-07T05:44:41;10.13;;;5.73;;
8791;SDS011;4432;50.890;4.744;2022-12-07T05:47:09;14.80;;;7.23;;
8791;SDS011;4432;50.890;4.744;2022-12-07T05:49:35;8.80;;;6.40;;
8791;SDS011;4432;50.890;4.744;2022-12-07T05:52:01;8.97;;;6.50;;
8791;SDS011;4432;50.890;4.744;2022-12-07T05:54:28;10.90;;;6.57;;
8791;SDS011;4432;50.890;4.744;2022-12-07T05:56:54;11.23;;;6.17;;
8791;SDS011;4432;50.890;4.744;2022-12-07T05:59:20;10.67;;;7.10;;
8791;SDS011;4432;50.890;4.744;2022-12-07T06:01:50;12.93;;;7.30;;
8791;SDS011;4432;50.890;4.744;2022-12-07T06:04:21;11.00;;;7.30;;
8791;SDS011;4432;50.890;4.744;2022-12-07T06:06:50;11.13;;;6.70;;
8791;SDS011;4432;50.890;4.744;2022-12-07T06:09:16;10.63;;;7.10;;
8791;SDS011;4432;50.890;4.744;2022-12-07T06:11:46;8.83;;;6.00;;
8791;SDS011;4432;50.890;4.744;2022-12-07T06:14:30;15.30;;;6.90;;
8791;SDS011;4432;50.890;4.744;2022-12-07T06:16:56;9.80;;;6.50;;
8791;SDS011;4432;50.890;4.744;2022-12-07T06:19:23;9.13;;;5.87;;
8791;SDS011;4432;50.890;4.744;2022-12-07T06:21:48;10.83;;;7.07;;
8791;SDS011;4432;50.890;4.744;2022-12-07T06:24:15;9.80;;;6.07;;
8791;SDS011;4432;50.890;4.744;2022-12-07T06:26:41;9.70;;;6.40;;
8791;SDS011;4432;50.890;4.744;2022-12-07T06:29:08;15.17;;;7.03;;
8791;SDS011;4432;50.890;4.744;2022-12-07T06:31:35;10.63;;;6.83;;
8791;SDS011;4432;50.890;4.744;2022-12-07T06:34:05;9.70;;;6.60;;
8791;SDS011;4432;50.890;4.744;2022-12-07T06:36:33;13.10;;;7.23;;
8791;SDS011;4432;50.890;4.744;2022-12-07T06:39:00;14.33;;;6.93;;
8791;SDS011;4432;50.890;4.744;2022-12-07T06:41:26;12.80;;;6.13;;
8791;SDS011;4432;50.890;4.744;2022-12-07T06:43:52;9.00;;;7.17;;
8791;SDS011;4432;50.890;4.744;2022-12-07T06:46:17;8.60;;;5.57;;
8791;SDS011;4432;50.890;4.744;2022-12-07T06:48:43;10.03;;;7.30;;
8791;SDS011;4432;50.890;4.744;2022-12-07T06:51:09;10.63;;;7.10;;
8791;SDS011;4432;50.890;4.744;2022-12-07T06:53:36;10.80;;;7.00;;
8791;SDS011;4432;50.890;4.744;2022-12-07T06:56:03;10.30;;;6.50;;
8791;SDS011;4432;50.890;4.744;2022-12-07T06:58:29;12.93;;;6.30;;
8791;SDS011;4432;50.890;4.744;2022-12-07T07:00:55;10.63;;;6.07;;
8791;SDS011;4432;50.890;4.744;2022-12-07T07:03:21;8.90;;;5.43;;
8791;SDS011;4432;50.890;4.744;2022-12-07T07:05:48;8.50;;;5.97;;
8791;SDS011;4432;50.890;4.744;2022-12-07T07:08:14;10.60;;;5.70;;
8791;SDS011;4432;50.890;4.744;2022-12-07T07:10:40;8.80;;;5.57;;
8791;SDS011;4432;50.890;4.744;2022-12-07T07:13:07;8.63;;;6.63;;
8791;SDS011;4432;50.890;4.744;2022-12-07T07:15:33;11.83;;;5.83;;
8791;SDS011;4432;50.890;4.744;2022-12-07T07:18:06;13.63;;;5.90;;
8791;SDS011;4432;50.890;4.744;2022-12-07T07:20:32;8.77;;;5.63;;
8791;SDS011;4432;50.890;4.744;2022-12-07T07:22:58;10.97;;;6.67;;
8791;SDS011;4432;50.890;4.744;2022-12-07T07:25:24;9.73;;;6.10;;
8791;SDS011;4432;50.890;4.744;2022-12-07T07:27:50;9.73;;;6.30;;
8791;SDS011;4432;50.890;4.744;2022-12-07T07:30:17;12.33;;;6.87;;
8791;SDS011;4432;50.890;4.744;2022-12-07T07:32:43;17.37;;;6.23;;
8791;SDS011;4432;50.890;4.744;2022-12-07T07:35:08;11.47;;;6.73;;
8791;SDS011;4432;50.890;4.744;2022-12-07T07:37:34;9.23;;;6.07;;
8791;SDS011;4432;50.890;4.744;2022-12-07T07:40:00;13.57;;;6.80;;
8791;SDS011;4432;50.890;4.744;2022-12-07T07:42:26;9.93;;;5.90;;
8791;SDS011;4432;50.890;4.744;2022-12-07T07:44:51;11.63;;;6.63;;
8791;SDS011;4432;50.890;4.744;2022-12-07T07:47:17;9.23;;;6.07;;
8791;SDS011;4432;50.890;4.744;2022-12-07T07:49:43;10.03;;;7.57;;
8791;SDS011;4432;50.890;4.744;2022-12-07T07:52:09;11.90;;;6.77;;
8791;SDS011;4432;50.890;4.744;2022-12-07T07:54:35;11.13;;;6.63;;
8791;SDS011;4432;50.890;4.744;2022-12-07T07:57:01;9.23;;;6.73;;
8791;SDS011;4432;50.890;4.744;2022-12-07T07:59:26;10.03;;;6.53;;
8791;SDS011;4432;50.890;4.744;2022-12-07T08:01:52;7.87;;;5.37;;
8791;SDS011;4432;50.890;4.744;2022-12-07T08:04:20;7.43;;;5.67;;
8791;SDS011;4432;50.890;4.744;2022-12-07T08:06:47;11.20;;;5.87;;
8791;SDS011;4432;50.890;4.744;2022-12-07T08:09:13;10.80;;;5.73;;
8791;SDS011;4432;50.890;4.744;2022-12-07T08:11:38;10.87;;;6.50;;
8791;SDS011;4432;50.890;4.744;2022-12-07T08:14:04;10.30;;;5.80;;
8791;SDS011;4432;50.890;4.744;2022-12-07T08:16:30;8.07;;;5.97;;
8791;SDS011;4432;50.890;4.744;2022-12-07T08:18:56;7.27;;;5.27;;
8791;SDS011;4432;50.890;4.744;2022-12-07T08:21:21;8.57;;;5.10;;
8791;SDS011;4432;50.890;4.744;2022-12-07T08:23:47;9.53;;;5.83;;
8791;SDS011;4432;50.890;4.744;2022-12-07T08:26:14;13.37;;;6.13;;
8791;SDS011;4432;50.890;4.744;2022-12-07T08:28:40;8.03;;;5.67;;
8791;SDS011;4432;50.890;4.744;2022-12-07T08:31:08;11.17;;;5.70;;
8791;SDS011;4432;50.890;4.744;2022-12-07T08:33:40;9.10;;;5.40;;
8791;SDS011;4432;50.890;4.744;2022-12-07T08:36:10;8.53;;;5.80;;
8791;SDS011;4432;50.890;4.744;2022-12-07T08:38:37;9.83;;;6.37;;
8791;SDS011;4432;50.890;4.744;2022-12-07T08:41:03;10.53;;;6.13;;
8791;SDS011;4432;50.890;4.744;2022-12-07T08:43:30;8.83;;;5.70;;
8791;SDS011;4432;50.890;4.744;2022-12-07T08:46:04;10.73;;;7.57;;
8791;SDS011;4432;50.890;4.744;2022-12-07T08:48:35;24.67;;;8.33;;
8791;SDS011;4432;50.890;4.744;2022-12-07T08:51:04;20.40;;;9.03;;
8791;SDS011;4432;50.890;4.744;2022-12-07T08:53:30;15.13;;;8.30;;
8791;SDS011;4432;50.890;4.744;2022-12-07T08:55:58;15.73;;;8.10;;
8791;SDS011;4432;50.890;4.744;2022-12-07T08:58:24;11.43;;;7.20;;
8791;SDS011;4432;50.890;4.744;2022-12-07T09:00:50;14.10;;;7.07;;
8791;SDS011;4432;50.890;4.744;2022-12-07T09:03:16;11.23;;;6.87;;
8791;SDS011;4432;50.890;4.744;2022-12-07T09:05:42;7.10;;;5.57;;
8791;SDS011;4432;50.890;4.744;2022-12-07T09:08:07;9.03;;;5.70;;
8791;SDS011;4432;50.890;4.744;2022-12-07T09:10:33;9.87;;;6.03;;
8791;SDS011;4432;50.890;4.744;2022-12-07T09:12:59;8.60;;;5.70;;
8791;SDS011;4432;50.890;4.744;2022-12-07T09:15:26;9.33;;;5.80;;
8791;SDS011;4432;50.890;4.744;2022-12-07T09:17:56;10.23;;;6.57;;
8791;SDS011;4432;50.890;4.744;2022-12-07T09:20:22;7.43;;;5.63;;
8791;SDS011;4432;50.890;4.744;2022-12-07T09:22:48;9.83;;;5.93;;
8791;SDS011;4432;50.890;4.744;2022-12-07T09:25:14;19.03;;;6.93;;
8791;SDS011;4432;50.890;4.744;2022-12-07T09:27:40;8.80;;;6.03;;
8791;SDS011;4432;50.890;4.744;2022-12-07T09:30:07;14.03;;;6.60;;
8791;SDS011;4432;50.890;4.744;2022-12-07T09:32:33;12.23;;;5.57;;
8791;SDS011;4432;50.890;4.744;2022-12-07T09:34:59;8.83;;;5.67;;
8791;SDS011;4432;50.890;4.744;2022-12-07T09:37:25;13.07;;;5.40;;
8791;SDS011;4432;50.890;4.744;2022-12-07T09:39:51;7.10;;;5.63;;
8791;SDS011;4432;50.890;4.744;2022-12-07T09:42:27;7.33;;;5.07;;
8791;SDS011;4432;50.890;4.744;2022-12-07T09:44:54;12.13;;;5.87;;
8791;SDS011;4432;50.890;4.744;2022-12-07T09:47:20;12.37;;;6.03;;
8791;SDS011;4432;50.890;4.744;2022-12-07T09:49:46;7.50;;;5.20;;
8791;SDS011;4432;50.890;4.744;2022-12-07T09:52:17;10.30;;;5.57;;
8791;SDS011;4432;50.890;4.744;2022-12-07T09:54:47;12.47;;;5.57;;
8791;SDS011;4432;50.890;4.744;2022-12-07T09:57:14;9.30;;;5.90;;
8791;SDS011;4432;50.890;4.744;2022-12-07T09:59:40;11.37;;;6.10;;
8791;SDS011;4432;50.890;4.744;2022-12-07T10:02:19;9.63;;;5.67;;
8791;SDS011;4432;50.890;4.744;2022-12-07T10:04:50;8.70;;;4.97;;
8791;SDS011;4432;50.890;4.744;2022-12-07T10:07:17;9.80;;;6.00;;
8791;SDS011;4432;50.890;4.744;2022-12-07T10:09:44;9.10;;;5.60;;
8791;SDS011;4432;50.890;4.744;2022-12-07T10:12:11;7.53;;;6.00;;
8791;SDS011;4432;50.890;4.744;2022-12-07T10:14:38;9.30;;;5.53;;
8791;SDS011;4432;50.890;4.744;2022-12-07T10:17:30;9.37;;;5.87;;
8791;SDS011;4432;50.890;4.744;2022-12-07T10:20:13;11.07;;;6.13;;
8791;SDS011;4432;50.890;4.744;2022-12-07T10:25:32;14.97;;;4.97;;
8791;SDS011;4432;50.890;4.744;2022-12-07T10:30:33;10.00;;;4.37;;
8791;SDS011;4432;50.890;4.744;2022-12-07T10:35:59;7.63;;;5.07;;
8791;SDS011;4432;50.890;4.744;2022-12-07T10:38:27;6.50;;;4.60;;
8791;SDS011;4432;50.890;4.744;2022-12-07T10:41:03;3.93;;;3.37;;
8791;SDS011;4432;50.890;4.744;2022-12-07T10:43:31;4.27;;;3.87;;
8791;SDS011;4432;50.890;4.744;2022-12-07T11:07:38;7.43;;;2.80;;
8791;SDS011;4432;50.890;4.744;2022-12-07T11:10:36;8.53;;;2.67;;
8791;SDS011;4432;50.890;4.744;2022-12-07T11:21:22;10.50;;;2.43;;
8791;SDS011;4432;50.890;4.744;2022-12-07T11:34:53;3.40;;;2.53;;
8791;SDS011;4432;50.890;4.744;2022-12-07T11:37:29;5.50;;;2.77;;
8791;SDS011;4432;50.890;4.744;2022-12-07T11:40:05;4.60;;;3.40;;
8791;SDS011;4432;50.890;4.744;2022-12-07T11:42:51;5.10;;;2.30;;
8791;SDS011;4432;50.890;4.744;2022-12-07T11:45:37;4.77;;;2.37;;
8791;SDS011;4432;50.890;4.744;2022-12-07T11:48:14;6.03;;;2.77;;
8791;SDS011;4432;50.890;4.744;2022-12-07T11:50:45;13.77;;;3.27;;
8791;SDS011;4432;50.890;4.744;2022-12-07T12:01:01;6.90;;;3.50;;
8791;SDS011;4432;50.890;4.744;2022-12-07T12:03:49;2.93;;;2.37;;
8791;SDS011;4432;50.890;4.744;2022-12-07T12:06:18;9.33;;;2.90;;
8791;SDS011;4432;50.890;4.744;2022-12-07T12:11:34;2.67;;;2.40;;
8791;SDS011;4432;50.890;4.744;2022-12-07T12:17:10;4.67;;;3.10;;
8791;SDS011;4432;50.890;4.744;2022-12-07T12:22:58;4.13;;;2.20;;
8791;SDS011;4432;50.890;4.744;2022-12-07T12:25:55;4.60;;;2.73;;
8791;SDS011;4432;50.890;4.744;2022-12-07T12:31:10;3.83;;;3.00;;
8791;SDS011;4432;50.890;4.744;2022-12-07T12:33:42;4.67;;;3.00;;
8791;SDS011;4432;50.890;4.744;2022-12-07T12:54:19;7.03;;;2.60;;
8791;SDS011;4432;50.890;4.744;2022-12-07T12:59:58;7.97;;;3.00;;
8791;SDS011;4432;50.890;4.744;2022-12-07T13:02:29;4.10;;;2.47;;
8791;SDS011;4432;50.890;4.744;2022-12-07T13:34:27;12.17;;;3.00;;
8791;SDS011;4432;50.890;4.744;2022-12-07T13:39:53;4.87;;;2.60;;
8791;SDS011;4432;50.890;4.744;2022-12-07T13:42:25;7.33;;;2.40;;
8791;SDS011;4432;50.890;4.744;2022-12-07T13:44:53;1.93;;;1.83;;
8791;SDS011;4432;50.890;4.744;2022-12-07T13:49:53;3.43;;;2.00;;
8791;SDS011;4432;50.890;4.744;2022-12-07T13:52:24;4.03;;;2.07;;
8791;SDS011;4432;50.890;4.744;2022-12-07T13:55:05;5.33;;;1.93;;
8791;SDS011;4432;50.890;4.744;2022-12-07T13:57:39;4.53;;;2.00;;
8791;SDS011;4432;50.890;4.744;2022-12-07T14:00:14;2.10;;;1.87;;
8791;SDS011;4432;50.890;4.744;2022-12-07T14:06:02;3.23;;;1.70;;
8791;SDS011;4432;50.890;4.744;2022-12-07T14:08:30;1.93;;;1.60;;
8791;SDS011;4432;50.890;4.744;2022-12-07T14:10:56;2.30;;;1.60;;
8791;SDS011;4432;50.890;4.744;2022-12-07T14:13:31;2.90;;;1.70;;
8791;SDS011;4432;50.890;4.744;2022-12-07T14:15:59;3.33;;;1.57;;
8791;SDS011;4432;50.890;4.744;2022-12-07T14:18:34;1.70;;;1.43;;
8791;SDS011;4432;50.890;4.744;2022-12-07T14:21:13;4.10;;;1.50;;
8791;SDS011;4432;50.890;4.744;2022-12-07T14:23:41;4.27;;;1.77;;
8791;SDS011;4432;50.890;4.744;2022-12-07T14:26:09;1.60;;;1.47;;
8791;SDS011;4432;50.890;4.744;2022-12-07T14:28:38;2.87;;;1.70;;
8791;SDS011;4432;50.890;4.744;2022-12-07T14:31:10;1.87;;;1.70;;
8791;SDS011;4432;50.890;4.744;2022-12-07T14:33:38;2.57;;;1.30;;
8791;SDS011;4432;50.890;4.744;2022-12-07T14:36:04;5.30;;;1.73;;
8791;SDS011;4432;50.890;4.744;2022-12-07T14:38:31;7.10;;;1.80;;
8791;SDS011;4432;50.890;4.744;2022-12-07T14:40:57;1.37;;;1.23;;
8791;SDS011;4432;50.890;4.744;2022-12-07T14:43:41;7.77;;;2.93;;
8791;SDS011;4432;50.890;4.744;2022-12-07T14:46:08;2.43;;;2.13;;
8791;SDS011;4432;50.890;4.744;2022-12-07T14:48:34;3.43;;;2.43;;
8791;SDS011;4432;50.890;4.744;2022-12-07T14:51:00;5.37;;;2.27;;
8791;SDS011;4432;50.890;4.744;2022-12-07T14:53:28;1.80;;;1.50;;
8791;SDS011;4432;50.890;4.744;2022-12-07T14:56:05;3.13;;;2.03;;
8791;SDS011;4432;50.890;4.744;2022-12-07T14:58:31;6.80;;;2.17;;
8791;SDS011;4432;50.890;4.744;2022-12-07T15:00:57;1.90;;;1.70;;
8791;SDS011;4432;50.890;4.744;2022-12-07T15:03:24;2.60;;;1.97;;
8791;SDS011;4432;50.890;4.744;2022-12-07T15:05:49;1.60;;;1.50;;
8791;SDS011;4432;50.890;4.744;2022-12-07T15:08:15;1.93;;;1.73;;
8791;SDS011;4432;50.890;4.744;2022-12-07T15:13:16;3.30;;;2.03;;
8791;SDS011;4432;50.890;4.744;2022-12-07T15:16:00;4.77;;;2.10;;
8791;SDS011;4432;50.890;4.744;2022-12-07T15:18:26;3.73;;;2.70;;
8791;SDS011;4432;50.890;4.744;2022-12-07T15:20:52;2.07;;;1.90;;
8791;SDS011;4432;50.890;4.744;2022-12-07T15:23:18;2.63;;;2.00;;
8791;SDS011;4432;50.890;4.744;2022-12-07T15:25:44;4.10;;;2.23;;
8791;SDS011;4432;50.890;4.744;2022-12-07T15:28:13;7.90;;;2.13;;
8791;SDS011;4432;50.890;4.744;2022-12-07T15:30:40;1.77;;;1.67;;
8791;SDS011;4432;50.890;4.744;2022-12-07T15:33:11;3.03;;;2.27;;
8791;SDS011;4432;50.890;4.744;2022-12-07T15:35:41;2.30;;;2.10;;
8791;SDS011;4432;50.890;4.744;2022-12-07T15:38:08;4.47;;;2.57;;
8791;SDS011;4432;50.890;4.744;2022-12-07T15:40:34;2.43;;;2.23;;
8791;SDS011;4432;50.890;4.744;2022-12-07T15:43:01;2.13;;;1.93;;
8791;SDS011;4432;50.890;4.744;2022-12-07T15:45:27;2.37;;;1.93;;
8791;SDS011;4432;50.890;4.744;2022-12-07T15:47:53;2.00;;;1.90;;
8791;SDS011;4432;50.890;4.744;2022-12-07T15:50:20;2.50;;;2.30;;
8791;SDS011;4432;50.890;4.744;2022-12-07T15:52:47;2.43;;;2.20;;
8791;SDS011;4432;50.890;4.744;2022-12-07T15:55:13;2.93;;;2.10;;
8791;SDS011;4432;50.890;4.744;2022-12-07T15:57:38;8.37;;;2.23;;
8791;SDS011;4432;50.890;4.744;2022-12-07T16:00:05;5.20;;;2.30;;
8791;SDS011;4432;50.890;4.744;2022-12-07T16:02:33;2.83;;;2.20;;
8791;SDS011;4432;50.890;4.744;2022-12-07T16:05:01;3.43;;;2.77;;
8791;SDS011;4432;50.890;4.744;2022-12-07T16:07:27;4.10;;;2.60;;
8791;SDS011;4432;50.890;4.744;2022-12-07T16:09:53;3.10;;;2.33;;
8791;SDS011;4432;50.890;4.744;2022-12-07T16:12:19;3.30;;;2.47;;
8791;SDS011;4432;50.890;4.744;2022-12-07T16:14:45;4.07;;;2.20;;
8791;SDS011;4432;50.890;4.744;2022-12-07T16:17:10;3.97;;;2.43;;
8791;SDS011;4432;50.890;4.744;2022-12-07T16:19:37;7.07;;;2.77;;
8791;SDS011;4432;50.890;4.744;2022-12-07T16:22:03;3.27;;;2.57;;
8791;SDS011;4432;50.890;4.744;2022-12-07T16:24:30;3.63;;;2.80;;
8791;SDS011;4432;50.890;4.744;2022-12-07T16:26:56;2.90;;;2.53;;
8791;SDS011;4432;50.890;4.744;2022-12-07T16:29:22;3.57;;;2.43;;
8791;SDS011;4432;50.890;4.744;2022-12-07T16:31:48;6.00;;;2.80;;
8791;SDS011;4432;50.890;4.744;2022-12-07T16:34:15;3.00;;;2.50;;
8791;SDS011;4432;50.890;4.744;2022-12-07T16:36:41;4.00;;;2.63;;
8791;SDS011;4432;50.890;4.744;2022-12-07T16:39:10;5.43;;;2.37;;
8791;SDS011;4432;50.890;4.744;2022-12-07T16:41:35;5.23;;;2.70;;
8791;SDS011;4432;50.890;4.744;2022-12-07T16:44:02;3.10;;;2.20;;
8791;SDS011;4432;50.890;4.744;2022-12-07T16:46:33;5.17;;;2.67;;
8791;SDS011;4432;50.890;4.744;2022-12-07T16:49:00;6.27;;;2.73;;
8791;SDS011;4432;50.890;4.744;2022-12-07T16:51:26;6.23;;;3.20;;
8791;SDS011;4432;50.890;4.744;2022-12-07T16:53:52;4.23;;;2.90;;
8791;SDS011;4432;50.890;4.744;2022-12-07T16:56:18;8.73;;;3.10;;
8791;SDS011;4432;50.890;4.744;2022-12-07T16:58:45;5.43;;;3.13;;
8791;SDS011;4432;50.890;4.744;2022-12-07T17:01:14;3.37;;;2.80;;
8791;SDS011;4432;50.890;4.744;2022-12-07T17:03:42;4.93;;;2.37;;
8791;SDS011;4432;50.890;4.744;2022-12-07T17:09:04;9.80;;;4.83;;
8791;SDS011;4432;50.890;4.744;2022-12-07T17:11:34;13.37;;;4.87;;
8791;SDS011;4432;50.890;4.744;2022-12-07T17:14:00;7.33;;;3.07;;
8791;SDS011;4432;50.890;4.744;2022-12-07T17:16:45;3.97;;;3.10;;
8791;SDS011;4432;50.890;4.744;2022-12-07T17:19:12;6.93;;;3.43;;
8791;SDS011;4432;50.890;4.744;2022-12-07T17:21:39;3.73;;;2.70;;
8791;SDS011;4432;50.890;4.744;2022-12-07T17:24:07;7.93;;;2.73;;
8791;SDS011;4432;50.890;4.744;2022-12-07T17:26:34;3.67;;;2.83;;
8791;SDS011;4432;50.890;4.744;2022-12-07T17:29:01;3.43;;;2.80;;
8791;SDS011;4432;50.890;4.744;2022-12-07T17:31:28;3.83;;;2.53;;
8791;SDS011;4432;50.890;4.744;2022-12-07T17:33:54;3.10;;;2.50;;
8791;SDS011;4432;50.890;4.744;2022-12-07T17:36:21;6.00;;;2.23;;
8791;SDS011;4432;50.890;4.744;2022-12-07T17:38:49;7.97;;;2.17;;
8791;SDS011;4432;50.890;4.744;2022-12-07T17:41:20;4.17;;;2.80;;
8791;SDS011;4432;50.890;4.744;2022-12-07T17:44:10;5.90;;;2.37;;
8791;SDS011;4432;50.890;4.744;2022-12-07T17:46:38;3.07;;;2.33;;
8791;SDS011;4432;50.890;4.744;2022-12-07T17:49:04;2.30;;;1.93;;
8791;SDS011;4432;50.890;4.744;2022-12-07T17:51:31;3.30;;;2.17;;
8791;SDS011;4432;50.890;4.744;2022-12-07T17:54:16;2.40;;;2.20;;
8791;SDS011;4432;50.890;4.744;2022-12-07T17:56:43;4.10;;;2.27;;
8791;SDS011;4432;50.890;4.744;2022-12-07T17:59:09;3.93;;;2.53;;
8791;SDS011;4432;50.890;4.744;2022-12-07T18:01:35;2.87;;;2.30;;
8791;SDS011;4432;50.890;4.744;2022-12-07T18:04:02;2.40;;;2.00;;
8791;SDS011;4432;50.890;4.744;2022-12-07T18:06:28;6.93;;;2.70;;
8791;SDS011;4432;50.890;4.744;2022-12-07T18:08:54;4.10;;;2.60;;
8791;SDS011;4432;50.890;4.744;2022-12-07T18:11:20;4.83;;;2.60;;
8791;SDS011;4432;50.890;4.744;2022-12-07T18:13:46;3.60;;;2.40;;
8791;SDS011;4432;50.890;4.744;2022-12-07T18:16:13;3.60;;;2.63;;